Alice, ND

11:48 AM CST on December 09, 2016 (GMT -0600)
Home of the Absaraka Crows | | Change Station

Elev 1066 ft 46.98 °N, 97.39 °W | Updated 2 seconds ago

Clear
Clear
5.4 °F
Feels Like -8 °F
N
8.3
Wind Variable Wind from NW
Gusts 8.3 mph

Today
High -- | Low -- °F
--% Chance of Precip.
Yesterday
High -- | Low -- °F
Precip. -- in
Pressure 30.57 in
Visibility 10.0 miles
Clouds Clear
Windchill -8 °F
Dew Point 0 °F
Humidity 79%
Rainfall 0.00 in
Snow Depth Not available.
8:03 AM 4:41 PM
Waxing Gibbous, 76% visible
METAR KBAC 091735Z AUTO 31009KT 10SM CLR M18/M21 A3057 RMK AO2
Pressure 30.57 in
Visibility 10.0 miles
Clouds Clear
Windchill -8 °F
Dew Point 0 °F
Humidity 79%
Rainfall 0.00 in
Snow Depth Not available.
8:03 AM 4:41 PM
Waxing Gibbous, 76% visible
METAR KBAC 091735Z AUTO 31009KT 10SM CLR M18/M21 A3057 RMK AO2

10-Day Weather Forecast

Almanac

Astronomy

Dec. 09, 2016 Rise Set
Actual Time
Civil Twilight
Nautical Twilight
Astronomical Twilight
Moon
Length of Visible Light
Length of Day
Tomorrow will be .
, % of the Moon is Illuminated

Today's Extremes

State Highs State Lows

Community

WunderPhotos

Upload Photos

1,956,462 photos uploaded!

WunderBlog® & News

Nearby

Air Quality

  Air Quality AQ Index Pollutant
Not available.

Snow Depth

Station Depth Elevation

Earthquake Activity

City Distance Mag. Time & Date
Minimum magnitude displayed is 2.5.

Coastal Water Temperatures

Place Temperature

Stations

Nearby Weather Stations

Station Location Temp. Windchill Dew Point Humidity Wind Precip. Elev Updated Type
                   

Watches & Warnings

There are currently no watches in effect.